sensor_id;sensor_type;location;lat;lon;timestamp;P1;durP1;ratioP1;P2;durP2;ratioP2
22254;SDS011;11296;42.684;23.322;2022-08-21T00:01:55;38.30;;;22.97;;
22254;SDS011;11296;42.684;23.322;2022-08-21T00:04:21;42.10;;;24.03;;
22254;SDS011;11296;42.684;23.322;2022-08-21T00:06:48;40.00;;;23.73;;
22254;SDS011;11296;42.684;23.322;2022-08-21T00:09:14;39.83;;;23.27;;
22254;SDS011;11296;42.684;23.322;2022-08-21T00:11:40;44.23;;;24.03;;
22254;SDS011;11296;42.684;23.322;2022-08-21T00:14:06;37.40;;;23.20;;
22254;SDS011;11296;42.684;23.322;2022-08-21T00:16:34;35.60;;;22.10;;
22254;SDS011;11296;42.684;23.322;2022-08-21T00:19:00;27.20;;;18.60;;
22254;SDS011;11296;42.684;23.322;2022-08-21T00:21:26;37.67;;;22.23;;
22254;SDS011;11296;42.684;23.322;2022-08-21T00:23:52;22.20;;;14.37;;
22254;SDS011;11296;42.684;23.322;2022-08-21T00:26:18;29.40;;;16.83;;
22254;SDS011;11296;42.684;23.322;2022-08-21T00:28:43;30.40;;;19.97;;
22254;SDS011;11296;42.684;23.322;2022-08-21T00:31:11;31.30;;;20.33;;
22254;SDS011;11296;42.684;23.322;2022-08-21T00:33:37;31.77;;;19.80;;
22254;SDS011;11296;42.684;23.322;2022-08-21T00:36:03;33.23;;;21.80;;
22254;SDS011;11296;42.684;23.322;2022-08-21T00:38:29;34.93;;;21.50;;
22254;SDS011;11296;42.684;23.322;2022-08-21T00:40:58;35.97;;;20.70;;
22254;SDS011;11296;42.684;23.322;2022-08-21T00:43:27;35.60;;;21.60;;
22254;SDS011;11296;42.684;23.322;2022-08-21T00:45:55;36.50;;;22.90;;
22254;SDS011;11296;42.684;23.322;2022-08-21T00:48:22;37.60;;;21.97;;
22254;SDS011;11296;42.684;23.322;2022-08-21T00:50:50;33.90;;;21.40;;
22254;SDS011;11296;42.684;23.322;2022-08-21T00:53:38;35.53;;;20.83;;
22254;SDS011;11296;42.684;23.322;2022-08-21T00:56:06;33.17;;;21.33;;
22254;SDS011;11296;42.684;23.322;2022-08-21T00:58:34;36.13;;;21.03;;
22254;SDS011;11296;42.684;23.322;2022-08-21T01:01:03;32.03;;;19.63;;
22254;SDS011;11296;42.684;23.322;2022-08-21T01:03:31;31.23;;;18.63;;
22254;SDS011;11296;42.684;23.322;2022-08-21T01:05:58;29.53;;;19.47;;
22254;SDS011;11296;42.684;23.322;2022-08-21T01:08:24;33.80;;;19.73;;
22254;SDS011;11296;42.684;23.322;2022-08-21T01:10:51;28.13;;;18.10;;
22254;SDS011;11296;42.684;23.322;2022-08-21T01:13:24;23.07;;;15.83;;
22254;SDS011;11296;42.684;23.322;2022-08-21T01:15:50;23.40;;;16.50;;
22254;SDS011;11296;42.684;23.322;2022-08-21T01:18:19;23.03;;;15.67;;
22254;SDS011;11296;42.684;23.322;2022-08-21T01:23:26;19.90;;;13.13;;
22254;SDS011;11296;42.684;23.322;2022-08-21T01:25:51;20.20;;;14.37;;
22254;SDS011;11296;42.684;23.322;2022-08-21T01:28:17;24.37;;;15.53;;
22254;SDS011;11296;42.684;23.322;2022-08-21T01:30:44;23.07;;;15.27;;
22254;SDS011;11296;42.684;23.322;2022-08-21T01:33:10;25.00;;;14.47;;
22254;SDS011;11296;42.684;23.322;2022-08-21T01:35:36;29.43;;;16.20;;
22254;SDS011;11296;42.684;23.322;2022-08-21T01:38:02;22.27;;;14.70;;
22254;SDS011;11296;42.684;23.322;2022-08-21T01:40:28;18.37;;;13.00;;
22254;SDS011;11296;42.684;23.322;2022-08-21T01:42:53;21.30;;;13.90;;
22254;SDS011;11296;42.684;23.322;2022-08-21T01:45:19;22.87;;;14.33;;
22254;SDS011;11296;42.684;23.322;2022-08-21T01:47:45;21.43;;;12.93;;
22254;SDS011;11296;42.684;23.322;2022-08-21T01:50:13;23.00;;;13.53;;
22254;SDS011;11296;42.684;23.322;2022-08-21T01:52:41;21.60;;;14.03;;
22254;SDS011;11296;42.684;23.322;2022-08-21T01:55:12;23.07;;;13.17;;
22254;SDS011;11296;42.684;23.322;2022-08-21T01:57:40;21.43;;;13.40;;
22254;SDS011;11296;42.684;23.322;2022-08-21T02:00:07;17.33;;;13.03;;
22254;SDS011;11296;42.684;23.322;2022-08-21T02:02:39;18.13;;;12.33;;
22254;SDS011;11296;42.684;23.322;2022-08-21T02:05:07;23.13;;;14.60;;
22254;SDS011;11296;42.684;23.322;2022-08-21T02:07:42;22.13;;;13.27;;
22254;SDS011;11296;42.684;23.322;2022-08-21T02:10:11;26.53;;;17.37;;
22254;SDS011;11296;42.684;23.322;2022-08-21T02:12:38;31.90;;;18.50;;
22254;SDS011;11296;42.684;23.322;2022-08-21T02:15:05;34.90;;;20.90;;
22254;SDS011;11296;42.684;23.322;2022-08-21T02:17:42;35.23;;;20.23;;
22254;SDS011;11296;42.684;23.322;2022-08-21T02:20:11;42.97;;;23.37;;
22254;SDS011;11296;42.684;23.322;2022-08-21T02:22:45;43.27;;;22.33;;
22254;SDS011;11296;42.684;23.322;2022-08-21T02:25:11;38.20;;;22.93;;
22254;SDS011;11296;42.684;23.322;2022-08-21T02:27:38;46.23;;;25.10;;
22254;SDS011;11296;42.684;23.322;2022-08-21T02:30:05;43.43;;;25.50;;
22254;SDS011;11296;42.684;23.322;2022-08-21T02:32:32;44.43;;;25.40;;
22254;SDS011;11296;42.684;23.322;2022-08-21T02:34:58;48.77;;;25.83;;
22254;SDS011;11296;42.684;23.322;2022-08-21T02:37:23;45.20;;;25.73;;
22254;SDS011;11296;42.684;23.322;2022-08-21T02:39:49;51.97;;;27.67;;
22254;SDS011;11296;42.684;23.322;2022-08-21T02:42:15;59.13;;;28.30;;
22254;SDS011;11296;42.684;23.322;2022-08-21T02:44:41;48.77;;;26.70;;
22254;SDS011;11296;42.684;23.322;2022-08-21T02:47:07;55.93;;;27.63;;
22254;SDS011;11296;42.684;23.322;2022-08-21T02:49:32;49.77;;;27.70;;
22254;SDS011;11296;42.684;23.322;2022-08-21T02:51:58;51.30;;;28.20;;
22254;SDS011;11296;42.684;23.322;2022-08-21T02:54:24;47.77;;;27.20;;
22254;SDS011;11296;42.684;23.322;2022-08-21T02:56:49;49.43;;;27.07;;
22254;SDS011;11296;42.684;23.322;2022-08-21T02:59:15;43.97;;;25.93;;
22254;SDS011;11296;42.684;23.322;2022-08-21T03:01:41;38.10;;;23.17;;
22254;SDS011;11296;42.684;23.322;2022-08-21T03:04:07;44.73;;;26.20;;
22254;SDS011;11296;42.684;23.322;2022-08-21T03:06:33;43.37;;;24.73;;
22254;SDS011;11296;42.684;23.322;2022-08-21T03:08:58;49.57;;;25.90;;
22254;SDS011;11296;42.684;23.322;2022-08-21T03:11:24;50.20;;;25.87;;
22254;SDS011;11296;42.684;23.322;2022-08-21T03:13:51;46.47;;;25.10;;
22254;SDS011;11296;42.684;23.322;2022-08-21T03:16:17;46.20;;;24.57;;
22254;SDS011;11296;42.684;23.322;2022-08-21T03:18:44;45.60;;;25.03;;
22254;SDS011;11296;42.684;23.322;2022-08-21T03:21:10;42.20;;;24.47;;
22254;SDS011;11296;42.684;23.322;2022-08-21T03:23:37;44.93;;;24.27;;
22254;SDS011;11296;42.684;23.322;2022-08-21T03:26:04;45.83;;;25.43;;
22254;SDS011;11296;42.684;23.322;2022-08-21T03:28:31;44.60;;;23.57;;
22254;SDS011;11296;42.684;23.322;2022-08-21T03:30:58;46.10;;;24.67;;
22254;SDS011;11296;42.684;23.322;2022-08-21T03:33:24;43.00;;;23.40;;
22254;SDS011;11296;42.684;23.322;2022-08-21T03:35:53;43.67;;;23.27;;
22254;SDS011;11296;42.684;23.322;2022-08-21T03:38:31;43.73;;;23.10;;
22254;SDS011;11296;42.684;23.322;2022-08-21T03:41:00;42.43;;;23.50;;
22254;SDS011;11296;42.684;23.322;2022-08-21T03:43:26;47.63;;;24.53;;
22254;SDS011;11296;42.684;23.322;2022-08-21T03:45:53;47.87;;;24.97;;
22254;SDS011;11296;42.684;23.322;2022-08-21T03:48:19;43.07;;;24.53;;
22254;SDS011;11296;42.684;23.322;2022-08-21T03:50:45;42.00;;;24.50;;
22254;SDS011;11296;42.684;23.322;2022-08-21T03:53:13;43.20;;;24.40;;
22254;SDS011;11296;42.684;23.322;2022-08-21T03:55:40;34.10;;;22.43;;
22254;SDS011;11296;42.684;23.322;2022-08-21T03:58:07;39.03;;;22.27;;
22254;SDS011;11296;42.684;23.322;2022-08-21T04:00:32;37.57;;;22.40;;
22254;SDS011;11296;42.684;23.322;2022-08-21T04:02:58;30.80;;;20.87;;
22254;SDS011;11296;42.684;23.322;2022-08-21T04:05:25;30.50;;;20.93;;
22254;SDS011;11296;42.684;23.322;2022-08-21T04:07:59;33.37;;;20.33;;
22254;SDS011;11296;42.684;23.322;2022-08-21T04:10:28;32.37;;;21.07;;
22254;SDS011;11296;42.684;23.322;2022-08-21T04:12:55;30.60;;;21.40;;
22254;SDS011;11296;42.684;23.322;2022-08-21T04:15:22;32.30;;;20.10;;
22254;SDS011;11296;42.684;23.322;2022-08-21T04:17:49;27.37;;;18.47;;
22254;SDS011;11296;42.684;23.322;2022-08-21T04:20:15;23.50;;;17.43;;
22254;SDS011;11296;42.684;23.322;2022-08-21T04:22:46;23.93;;;15.37;;
22254;SDS011;11296;42.684;23.322;2022-08-21T04:25:14;26.57;;;16.73;;
22254;SDS011;11296;42.684;23.322;2022-08-21T04:27:41;23.83;;;15.33;;
22254;SDS011;11296;42.684;23.322;2022-08-21T04:30:07;19.07;;;14.67;;
22254;SDS011;11296;42.684;23.322;2022-08-21T04:32:35;22.60;;;14.83;;
22254;SDS011;11296;42.684;23.322;2022-08-21T04:35:04;21.60;;;13.93;;
22254;SDS011;11296;42.684;23.322;2022-08-21T04:37:34;21.47;;;12.80;;
22254;SDS011;11296;42.684;23.322;2022-08-21T04:40:00;17.87;;;12.60;;
22254;SDS011;11296;42.684;23.322;2022-08-21T04:42:28;16.30;;;12.20;;
22254;SDS011;11296;42.684;23.322;2022-08-21T04:44:54;16.83;;;12.77;;
22254;SDS011;11296;42.684;23.322;2022-08-21T04:47:21;17.60;;;12.40;;
22254;SDS011;11296;42.684;23.322;2022-08-21T04:49:48;18.07;;;12.03;;
22254;SDS011;11296;42.684;23.322;2022-08-21T04:52:18;18.47;;;12.90;;
22254;SDS011;11296;42.684;23.322;2022-08-21T04:54:48;17.23;;;12.20;;
22254;SDS011;11296;42.684;23.322;2022-08-21T04:57:20;16.77;;;12.23;;
22254;SDS011;11296;42.684;23.322;2022-08-21T04:59:47;17.60;;;12.30;;
22254;SDS011;11296;42.684;23.322;2022-08-21T05:02:16;18.97;;;12.93;;
22254;SDS011;11296;42.684;23.322;2022-08-21T05:04:45;18.00;;;12.87;;
22254;SDS011;11296;42.684;23.322;2022-08-21T05:07:16;20.77;;;12.47;;
22254;SDS011;11296;42.684;23.322;2022-08-21T05:09:50;19.57;;;12.80;;
22254;SDS011;11296;42.684;23.322;2022-08-21T05:12:17;17.40;;;11.53;;
22254;SDS011;11296;42.684;23.322;2022-08-21T05:14:44;15.37;;;12.00;;
22254;SDS011;11296;42.684;23.322;2022-08-21T05:17:09;12.43;;;10.37;;
22254;SDS011;11296;42.684;23.322;2022-08-21T05:19:35;18.63;;;12.37;;
22254;SDS011;11296;42.684;23.322;2022-08-21T05:22:01;17.67;;;12.30;;
22254;SDS011;11296;42.684;23.322;2022-08-21T05:24:27;15.50;;;12.10;;
22254;SDS011;11296;42.684;23.322;2022-08-21T05:26:54;17.07;;;11.33;;
22254;SDS011;11296;42.684;23.322;2022-08-21T05:29:24;15.63;;;11.87;;
22254;SDS011;11296;42.684;23.322;2022-08-21T05:40:25;12.67;;;9.77;;
22254;SDS011;11296;42.684;23.322;2022-08-21T05:42:53;12.87;;;9.87;;
22254;SDS011;11296;42.684;23.322;2022-08-21T05:45:20;13.23;;;10.07;;
22254;SDS011;11296;42.684;23.322;2022-08-21T05:47:52;13.67;;;9.70;;
22254;SDS011;11296;42.684;23.322;2022-08-21T05:50:18;13.37;;;9.00;;
22254;SDS011;11296;42.684;23.322;2022-08-21T05:52:44;13.97;;;9.00;;
22254;SDS011;11296;42.684;23.322;2022-08-21T05:55:11;10.37;;;8.30;;
22254;SDS011;11296;42.684;23.322;2022-08-21T05:57:40;10.80;;;7.43;;
22254;SDS011;11296;42.684;23.322;2022-08-21T06:10:32;12.33;;;9.00;;
22254;SDS011;11296;42.684;23.322;2022-08-21T06:12:58;14.73;;;9.70;;
22254;SDS011;11296;42.684;23.322;2022-08-21T06:34:00;12.53;;;9.67;;
22254;SDS011;11296;42.684;23.322;2022-08-21T06:36:29;16.83;;;10.40;;
22254;SDS011;11296;42.684;23.322;2022-08-21T06:41:43;16.10;;;10.43;;
22254;SDS011;11296;42.684;23.322;2022-08-21T06:44:10;13.57;;;10.37;;
22254;SDS011;11296;42.684;23.322;2022-08-21T06:46:35;15.23;;;9.70;;
22254;SDS011;11296;42.684;23.322;2022-08-21T06:49:01;16.13;;;10.87;;
22254;SDS011;11296;42.684;23.322;2022-08-21T06:51:27;14.10;;;10.40;;
22254;SDS011;11296;42.684;23.322;2022-08-21T06:53:54;16.33;;;10.33;;
22254;SDS011;11296;42.684;23.322;2022-08-21T06:56:24;16.17;;;10.40;;
22254;SDS011;11296;42.684;23.322;2022-08-21T06:58:50;13.33;;;9.87;;
22254;SDS011;11296;42.684;23.322;2022-08-21T07:01:20;14.57;;;10.63;;
22254;SDS011;11296;42.684;23.322;2022-08-21T07:03:48;14.23;;;10.67;;
22254;SDS011;11296;42.684;23.322;2022-08-21T07:06:14;12.90;;;10.27;;
22254;SDS011;11296;42.684;23.322;2022-08-21T07:08:40;14.60;;;11.30;;
22254;SDS011;11296;42.684;23.322;2022-08-21T07:11:17;12.30;;;10.07;;
22254;SDS011;11296;42.684;23.322;2022-08-21T07:13:48;14.87;;;11.47;;
22254;SDS011;11296;42.684;23.322;2022-08-21T07:16:16;14.53;;;12.00;;
22254;SDS011;11296;42.684;23.322;2022-08-21T07:18:42;17.37;;;11.60;;
22254;SDS011;11296;42.684;23.322;2022-08-21T07:21:08;12.63;;;10.40;;
22254;SDS011;11296;42.684;23.322;2022-08-21T07:23:38;19.87;;;11.03;;
22254;SDS011;11296;42.684;23.322;2022-08-21T07:26:06;14.27;;;10.73;;
22254;SDS011;11296;42.684;23.322;2022-08-21T07:28:32;15.43;;;12.10;;
22254;SDS011;11296;42.684;23.322;2022-08-21T07:30:59;17.33;;;12.03;;
22254;SDS011;11296;42.684;23.322;2022-08-21T07:33:26;16.03;;;11.27;;
22254;SDS011;11296;42.684;23.322;2022-08-21T07:35:54;14.73;;;11.23;;
22254;SDS011;11296;42.684;23.322;2022-08-21T07:38:20;15.60;;;10.77;;
22254;SDS011;11296;42.684;23.322;2022-08-21T07:40:47;14.30;;;11.40;;
22254;SDS011;11296;42.684;23.322;2022-08-21T07:43:14;15.83;;;11.33;;
22254;SDS011;11296;42.684;23.322;2022-08-21T07:45:42;14.17;;;11.60;;
22254;SDS011;11296;42.684;23.322;2022-08-21T07:48:09;13.80;;;10.87;;
22254;SDS011;11296;42.684;23.322;2022-08-21T07:50:35;19.07;;;11.77;;
22254;SDS011;11296;42.684;23.322;2022-08-21T07:53:01;17.37;;;11.83;;
22254;SDS011;11296;42.684;23.322;2022-08-21T07:55:27;14.50;;;10.57;;
22254;SDS011;11296;42.684;23.322;2022-08-21T07:57:53;19.50;;;11.60;;
22254;SDS011;11296;42.684;23.322;2022-08-21T08:00:20;18.40;;;11.03;;
22254;SDS011;11296;42.684;23.322;2022-08-21T08:02:48;18.40;;;11.20;;
22254;SDS011;11296;42.684;23.322;2022-08-21T08:05:16;19.27;;;11.10;;
22254;SDS011;11296;42.684;23.322;2022-08-21T08:07:44;17.73;;;11.77;;
22254;SDS011;11296;42.684;23.322;2022-08-21T08:10:10;17.60;;;12.20;;
22254;SDS011;11296;42.684;23.322;2022-08-21T08:12:37;18.57;;;11.67;;
22254;SDS011;11296;42.684;23.322;2022-08-21T08:15:06;17.13;;;12.23;;
22254;SDS011;11296;42.684;23.322;2022-08-21T08:17:33;17.07;;;13.07;;
22254;SDS011;11296;42.684;23.322;2022-08-21T08:19:59;17.17;;;12.43;;
22254;SDS011;11296;42.684;23.322;2022-08-21T08:22:28;13.63;;;11.73;;
22254;SDS011;11296;42.684;23.322;2022-08-21T08:24:54;16.67;;;12.37;;
22254;SDS011;11296;42.684;23.322;2022-08-21T08:27:21;16.60;;;12.00;;
22254;SDS011;11296;42.684;23.322;2022-08-21T08:29:47;15.93;;;11.80;;
22254;SDS011;11296;42.684;23.322;2022-08-21T08:32:13;15.53;;;11.77;;
22254;SDS011;11296;42.684;23.322;2022-08-21T08:34:39;15.13;;;11.07;;
22254;SDS011;11296;42.684;23.322;2022-08-21T08:37:06;13.90;;;11.00;;
22254;SDS011;11296;42.684;23.322;2022-08-21T08:39:32;14.82;;;11.18;;
22254;SDS011;11296;42.684;23.322;2022-08-21T08:42:05;15.40;;;10.57;;
22254;SDS011;11296;42.684;23.322;2022-08-21T08:44:39;15.68;;;10.60;;
22254;SDS011;11296;42.684;23.322;2022-08-21T08:47:08;13.15;;;10.88;;
22254;SDS011;11296;42.684;23.322;2022-08-21T08:55:38;15.48;;;10.32;;
22254;SDS011;11296;42.684;23.322;2022-08-21T08:58:06;14.40;;;10.20;;
22254;SDS011;11296;42.684;23.322;2022-08-21T09:00:37;12.80;;;9.80;;
22254;SDS011;11296;42.684;23.322;2022-08-21T09:03:04;12.68;;;9.48;;
22254;SDS011;11296;42.684;23.322;2022-08-21T09:05:33;11.52;;;8.43;;
22254;SDS011;11296;42.684;23.322;2022-08-21T09:16:24;11.77;;;8.70;;
22254;SDS011;11296;42.684;23.322;2022-08-21T09:19:05;11.32;;;7.97;;
22254;SDS011;11296;42.684;23.322;2022-08-21T09:27:15;12.20;;;7.03;;
22254;SDS011;11296;42.684;23.322;2022-08-21T09:29:44;11.20;;;8.15;;
22254;SDS011;11296;42.684;23.322;2022-08-21T09:32:28;12.68;;;7.93;;
22254;SDS011;11296;42.684;23.322;2022-08-21T09:35:12;12.50;;;6.72;;
22254;SDS011;11296;42.684;23.322;2022-08-21T09:37:54;12.88;;;7.72;;
22254;SDS011;11296;42.684;23.322;2022-08-21T09:42:58;11.10;;;7.00;;
22254;SDS011;11296;42.684;23.322;2022-08-21T09:45:29;8.52;;;6.85;;
22254;SDS011;11296;42.684;23.322;2022-08-21T09:47:56;7.75;;;6.45;;
22254;SDS011;11296;42.684;23.322;2022-08-21T09:50:32;11.00;;;7.25;;
22254;SDS011;11296;42.684;23.322;2022-08-21T09:52:59;9.98;;;6.93;;
22254;SDS011;11296;42.684;23.322;2022-08-21T09:55:39;9.05;;;5.93;;
22254;SDS011;11296;42.684;23.322;2022-08-21T09:58:42;10.07;;;6.55;;
22254;SDS011;11296;42.684;23.322;2022-08-21T10:01:18;7.65;;;5.78;;
22254;SDS011;11296;42.684;23.322;2022-08-21T10:03:46;8.95;;;6.30;;
22254;SDS011;11296;42.684;23.322;2022-08-21T10:06:25;11.40;;;6.22;;
22254;SDS011;11296;42.684;23.322;2022-08-21T10:09:07;9.70;;;6.43;;
22254;SDS011;11296;42.684;23.322;2022-08-21T10:11:38;10.88;;;6.40;;
22254;SDS011;11296;42.684;23.322;2022-08-21T10:17:14;11.02;;;6.68;;
22254;SDS011;11296;42.684;23.322;2022-08-21T10:19:56;9.65;;;7.00;;
22254;SDS011;11296;42.684;23.322;2022-08-21T10:22:41;11.07;;;6.25;;
22254;SDS011;11296;42.684;23.322;2022-08-21T10:25:14;7.50;;;6.35;;
22254;SDS011;11296;42.684;23.322;2022-08-21T10:31:03;12.23;;;6.78;;
22254;SDS011;11296;42.684;23.322;2022-08-21T10:39:31;10.30;;;6.57;;
22254;SDS011;11296;42.684;23.322;2022-08-21T10:42:12;8.98;;;6.38;;
22254;SDS011;11296;42.684;23.322;2022-08-21T10:47:53;11.73;;;6.97;;
22254;SDS011;11296;42.684;23.322;2022-08-21T10:50:25;8.60;;;6.13;;
22254;SDS011;11296;42.684;23.322;2022-08-21T10:55:33;7.50;;;6.68;;
22254;SDS011;11296;42.684;23.322;2022-08-21T10:58:29;8.57;;;6.45;;
22254;SDS011;11296;42.684;23.322;2022-08-21T11:01:00;9.10;;;6.85;;
22254;SDS011;11296;42.684;23.322;2022-08-21T11:03:35;8.10;;;6.70;;
22254;SDS011;11296;42.684;23.322;2022-08-21T11:06:18;9.50;;;6.65;;
22254;SDS011;11296;42.684;23.322;2022-08-21T11:08:50;8.27;;;6.20;;
22254;SDS011;11296;42.684;23.322;2022-08-21T11:11:30;9.55;;;6.00;;
22254;SDS011;11296;42.684;23.322;2022-08-21T11:17:13;12.23;;;6.43;;
22254;SDS011;11296;42.684;23.322;2022-08-21T11:22:48;8.88;;;6.00;;
22254;SDS011;11296;42.684;23.322;2022-08-21T11:27:54;7.43;;;5.47;;
22254;SDS011;11296;42.684;23.322;2022-08-21T11:30:27;7.55;;;5.75;;
22254;SDS011;11296;42.684;23.322;2022-08-21T11:36:29;8.60;;;5.65;;
22254;SDS011;11296;42.684;23.322;2022-08-21T11:41:37;9.13;;;5.68;;
22254;SDS011;11296;42.684;23.322;2022-08-21T11:44:18;7.05;;;5.57;;
22254;SDS011;11296;42.684;23.322;2022-08-21T11:50:18;7.72;;;4.93;;
22254;SDS011;11296;42.684;23.322;2022-08-21T11:52:53;9.55;;;5.13;;
22254;SDS011;11296;42.684;23.322;2022-08-21T11:55:41;9.18;;;5.10;;
22254;SDS011;11296;42.684;23.322;2022-08-21T12:01:03;6.55;;;5.07;;
22254;SDS011;11296;42.684;23.322;2022-08-21T12:03:34;10.20;;;5.60;;
22254;SDS011;11296;42.684;23.322;2022-08-21T12:06:07;9.38;;;5.95;;
22254;SDS011;11296;42.684;23.322;2022-08-21T12:08:40;9.25;;;5.45;;
22254;SDS011;11296;42.684;23.322;2022-08-21T12:16:33;7.07;;;5.07;;
22254;SDS011;11296;42.684;23.322;2022-08-21T12:19:08;9.50;;;5.35;;
22254;SDS011;11296;42.684;23.322;2022-08-21T12:21:58;6.47;;;5.32;;
22254;SDS011;11296;42.684;23.322;2022-08-21T12:24:48;9.25;;;5.68;;
22254;SDS011;11296;42.684;23.322;2022-08-21T12:27:22;8.38;;;5.75;;
22254;SDS011;11296;42.684;23.322;2022-08-21T12:30:03;7.88;;;5.40;;
22254;SDS011;11296;42.684;23.322;2022-08-21T12:32:43;8.38;;;5.88;;
22254;SDS011;11296;42.684;23.322;2022-08-21T12:35:14;8.60;;;6.00;;
22254;SDS011;11296;42.684;23.322;2022-08-21T12:37:50;9.15;;;5.80;;
22254;SDS011;11296;42.684;23.322;2022-08-21T12:40:26;10.20;;;5.78;;
22254;SDS011;11296;42.684;23.322;2022-08-21T12:43:02;9.68;;;6.20;;
22254;SDS011;11296;42.684;23.322;2022-08-21T12:48:00;6.88;;;5.95;;
22254;SDS011;11296;42.684;23.322;2022-08-21T12:50:40;8.30;;;5.47;;
22254;SDS011;11296;42.684;23.322;2022-08-21T12:53:23;10.73;;;6.32;;
22254;SDS011;11296;42.684;23.322;2022-08-21T12:56:12;10.75;;;6.80;;
22254;SDS011;11296;42.684;23.322;2022-08-21T12:58:43;7.40;;;6.30;;
22254;SDS011;11296;42.684;23.322;2022-08-21T13:01:56;9.00;;;5.82;;
22254;SDS011;11296;42.684;23.322;2022-08-21T13:04:02;7.68;;;5.95;;
22254;SDS011;11296;42.684;23.322;2022-08-21T13:06:38;7.15;;;5.38;;
22254;SDS011;11296;42.684;23.322;2022-08-21T13:09:16;6.97;;;5.72;;
22254;SDS011;11296;42.684;23.322;2022-08-21T13:11:46;17.95;;;11.18;;
22254;SDS011;11296;42.684;23.322;2022-08-21T13:14:25;8.15;;;5.32;;
22254;SDS011;11296;42.684;23.322;2022-08-21T13:17:00;12.55;;;6.88;;
22254;SDS011;11296;42.684;23.322;2022-08-21T13:19:30;8.00;;;5.90;;
22254;SDS011;11296;42.684;23.322;2022-08-21T13:21:57;18.17;;;11.05;;
22254;SDS011;11296;42.684;23.322;2022-08-21T13:24:25;7.43;;;5.40;;
22254;SDS011;11296;42.684;23.322;2022-08-21T13:26:54;8.73;;;6.07;;
22254;SDS011;11296;42.684;23.322;2022-08-21T13:29:21;9.50;;;5.10;;
22254;SDS011;11296;42.684;23.322;2022-08-21T13:31:50;9.32;;;5.93;;
22254;SDS011;11296;42.684;23.322;2022-08-21T13:34:22;8.52;;;5.57;;
22254;SDS011;11296;42.684;23.322;2022-08-21T13:36:51;9.95;;;5.85;;
22254;SDS011;11296;42.684;23.322;2022-08-21T13:39:22;7.32;;;5.28;;
22254;SDS011;11296;42.684;23.322;2022-08-21T13:41:50;9.23;;;5.30;;
22254;SDS011;11296;42.684;23.322;2022-08-21T13:44:24;6.20;;;5.40;;
22254;SDS011;11296;42.684;23.322;2022-08-21T13:47:11;10.05;;;5.05;;
22254;SDS011;11296;42.684;23.322;2022-08-21T13:49:40;7.80;;;4.90;;
22254;SDS011;11296;42.684;23.322;2022-08-21T13:52:16;7.85;;;5.20;;
22254;SDS011;11296;42.684;23.322;2022-08-21T13:54:57;8.07;;;5.20;;
22254;SDS011;11296;42.684;23.322;2022-08-21T13:57:29;7.90;;;5.00;;
22254;SDS011;11296;42.684;23.322;2022-08-21T14:00:12;6.00;;;5.20;;
22254;SDS011;11296;42.684;23.322;2022-08-21T14:02:45;6.68;;;5.20;;
22254;SDS011;11296;42.684;23.322;2022-08-21T14:05:19;8.23;;;4.88;;
22254;SDS011;11296;42.684;23.322;2022-08-21T14:07:47;8.13;;;5.18;;
22254;SDS011;11296;42.684;23.322;2022-08-21T14:10:22;7.90;;;5.03;;
22254;SDS011;11296;42.684;23.322;2022-08-21T14:12:52;6.75;;;4.90;;
22254;SDS011;11296;42.684;23.322;2022-08-21T14:15:24;8.93;;;5.20;;
22254;SDS011;11296;42.684;23.322;2022-08-21T14:17:53;7.97;;;5.45;;
22254;SDS011;11296;42.684;23.322;2022-08-21T14:20:30;8.52;;;5.47;;
22254;SDS011;11296;42.684;23.322;2022-08-21T14:22:58;7.05;;;5.28;;
22254;SDS011;11296;42.684;23.322;2022-08-21T14:28:03;9.82;;;5.78;;
22254;SDS011;11296;42.684;23.322;2022-08-21T14:31:13;8.82;;;5.00;;
22254;SDS011;11296;42.684;23.322;2022-08-21T14:33:43;9.82;;;5.25;;
22254;SDS011;11296;42.684;23.322;2022-08-21T14:36:09;8.45;;;6.07;;
22254;SDS011;11296;42.684;23.322;2022-08-21T14:38:36;10.18;;;5.57;;
22254;SDS011;11296;42.684;23.322;2022-08-21T14:41:08;9.73;;;5.80;;
22254;SDS011;11296;42.684;23.322;2022-08-21T14:43:41;7.68;;;5.95;;
22254;SDS011;11296;42.684;23.322;2022-08-21T14:46:07;9.23;;;5.60;;
22254;SDS011;11296;42.684;23.322;2022-08-21T14:48:33;9.48;;;6.05;;
22254;SDS011;11296;42.684;23.322;2022-08-21T14:50:58;8.65;;;6.05;;
22254;SDS011;11296;42.684;23.322;2022-08-21T14:53:24;9.88;;;6.55;;
22254;SDS011;11296;42.684;23.322;2022-08-21T14:55:49;13.02;;;6.50;;
22254;SDS011;11296;42.684;23.322;2022-08-21T14:58:30;8.70;;;6.53;;
22254;SDS011;11296;42.684;23.322;2022-08-21T15:00:57;9.23;;;7.43;;
22254;SDS011;11296;42.684;23.322;2022-08-21T15:03:24;12.63;;;7.53;;
22254;SDS011;11296;42.684;23.322;2022-08-21T15:05:50;7.85;;;6.75;;
22254;SDS011;11296;42.684;23.322;2022-08-21T15:08:17;9.32;;;5.93;;
22254;SDS011;11296;42.684;23.322;2022-08-21T15:10:43;6.60;;;5.18;;
22254;SDS011;11296;42.684;23.322;2022-08-21T15:13:09;9.90;;;6.30;;
22254;SDS011;11296;42.684;23.322;2022-08-21T15:15:39;9.27;;;6.30;;
22254;SDS011;11296;42.684;23.322;2022-08-21T15:18:06;10.98;;;6.53;;
22254;SDS011;11296;42.684;23.322;2022-08-21T15:20:32;15.48;;;7.05;;
22254;SDS011;11296;42.684;23.322;2022-08-21T15:22:58;8.50;;;6.40;;
22254;SDS011;11296;42.684;23.322;2022-08-21T15:25:24;9.40;;;6.35;;
22254;SDS011;11296;42.684;23.322;2022-08-21T15:27:50;7.45;;;5.75;;
22254;SDS011;11296;42.684;23.322;2022-08-21T15:30:16;9.80;;;6.40;;
22254;SDS011;11296;42.684;23.322;2022-08-21T15:32:41;7.85;;;6.00;;
22254;SDS011;11296;42.684;23.322;2022-08-21T15:35:08;7.32;;;5.60;;
22254;SDS011;11296;42.684;23.322;2022-08-21T15:37:34;10.10;;;5.93;;
22254;SDS011;11296;42.684;23.322;2022-08-21T15:40:01;8.57;;;6.22;;
22254;SDS011;11296;42.684;23.322;2022-08-21T15:42:28;6.97;;;5.43;;
22254;SDS011;11296;42.684;23.322;2022-08-21T15:44:54;7.30;;;6.35;;
22254;SDS011;11296;42.684;23.322;2022-08-21T15:47:22;7.82;;;6.10;;
22254;SDS011;11296;42.684;23.322;2022-08-21T15:49:53;9.40;;;6.32;;
22254;SDS011;11296;42.684;23.322;2022-08-21T15:52:19;7.80;;;6.82;;
22254;SDS011;11296;42.684;23.322;2022-08-21T15:54:46;7.75;;;6.60;;
22254;SDS011;11296;42.684;23.322;2022-08-21T15:57:13;7.22;;;6.53;;
22254;SDS011;11296;42.684;23.322;2022-08-21T15:59:42;7.38;;;6.68;;
22254;SDS011;11296;42.684;23.322;2022-08-21T16:02:29;9.60;;;6.75;;
22254;SDS011;11296;42.684;23.322;2022-08-21T16:04:56;9.55;;;6.35;;
22254;SDS011;11296;42.684;23.322;2022-08-21T16:07:23;9.38;;;6.63;;
22254;SDS011;11296;42.684;23.322;2022-08-21T16:09:49;9.13;;;6.32;;
22254;SDS011;11296;42.684;23.322;2022-08-21T16:12:25;7.40;;;6.53;;
22254;SDS011;11296;42.684;23.322;2022-08-21T16:14:56;8.00;;;6.15;;
22254;SDS011;11296;42.684;23.322;2022-08-21T16:17:31;8.73;;;6.70;;
22254;SDS011;11296;42.684;23.322;2022-08-21T16:19:59;6.95;;;6.30;;
22254;SDS011;11296;42.684;23.322;2022-08-21T16:22:25;9.48;;;7.38;;
22254;SDS011;11296;42.684;23.322;2022-08-21T16:24:51;9.45;;;6.60;;
22254;SDS011;11296;42.684;23.322;2022-08-21T16:27:17;8.85;;;6.80;;
22254;SDS011;11296;42.684;23.322;2022-08-21T16:29:43;10.30;;;7.18;;